Portada
METAR-TAF:

METAR-TAF

Aeropuertos :

Aeropuerto de Ibiza

Ibiza, España

latitud: 38-52N, longitud: 001-23E, altitud: 7 m

Observación

El informe se hizo hace 27 minutos, a las 21:30 UTC
Viento 7 kt del sur-suroeste, variando entre sur y oeste-suroeste
Temperatura 21°C
Humedad 69%
Presión 1018 hPa
Visibilidad 10 km o más
Escasas nubes a una altura de 3000 ft

METAR: LEIB 162130Z 21007KT 180V240 9999 FEW030 21/15 Q1018 NOSIG

Hora: 23:57 (21:57 UTC)

Pronóstico

El informe se hizo hace 1 hora y 57 minutos, a las 20:00 UTC
Pronóstico válido del 16 a las 21 UTC al 17 a las 21 UTC
Viento 10 kt del suroeste
Visibilidad 10 km o más
Escasas nubes a una altura de 4000 ft

TAF: LEIB 162000Z 1621/1721 22010KT 9999 FEW040 TX24/1712Z TN17/1706Z

Observaciones y pronósticos meteorológicos de más de 4000 aeropuertos (mensajes METAR y TAF).

Los puntos amarillos y rojos representan las estaciones disponibles.

Ponga el ratón en el punto deseado para ver el nombre de la estación.

Haga clic para ver las observaciones y los pronósticos meteorológicos.

Para cambiar el mapa : haga clic en los botones verdes con una cruz de color negro para hacer un zoom, en el botón verde con un guión para alejar o en las flechas verdes para mapas adyacentes.


METAR-TAF: